Time;durP1;ratioP1;P1;durP2;ratioP2;P2;SDS_P1;SDS_P2;PMS_P1;PMS_P2;Temp;Humidity;BMP_temperature;BMP_pressure;BME280_temperature;BME280_humidity;BME280_pressure;Samples;Min_cycle;Max_cycle;Signal;HPM_P1;HPM_P2
2021/05/27 00:01:28;;;;;;;7.20;2.50;;;;;;;;;;4879169;29;20045;-73
2021/05/27 00:03:54;;;;;;;8.38;2.60;;;;;;;;;;4879195;29;20033;-73
2021/05/27 00:06:20;;;;;;;5.32;2.40;;;;;;;;;;4879176;29;20037;-72
2021/05/27 00:08:46;;;;;;;9.07;2.60;;;;;;;;;;4878857;29;20497;-73
2021/05/27 00:11:12;;;;;;;8.00;2.50;;;;;;;;;;4879132;29;20045;-69
2021/05/27 00:13:38;;;;;;;8.50;3.03;;;;;;;;;;4878830;29;20029;-71
2021/05/27 00:16:05;;;;;;;4.82;2.47;;;;;;;;;;4878952;29;20025;-73
2021/05/27 00:18:31;;;;;;;5.40;2.17;;;;;;;;;;4878919;29;20068;-72
2021/05/27 00:20:57;;;;;;;7.05;2.72;;;;;;;;;;4879099;29;20052;-71
2021/05/27 00:23:23;;;;;;;7.85;2.75;;;;;;;;;;4878540;29;20078;-71
2021/05/27 00:25:49;;;;;;;7.97;2.50;;;;;;;;;;4878811;29;20045;-71
2021/05/27 00:28:15;;;;;;;6.03;2.40;;;;;;;;;;4878403;29;20389;-73
2021/05/27 00:30:41;;;;;;;6.30;2.40;;;;;;;;;;4877261;29;20057;-71
2021/05/27 00:33:07;;;;;;;5.80;2.28;;;;;;;;;;4877352;29;20033;-73
2021/05/27 00:35:33;;;;;;;5.68;2.22;;;;;;;;;;4876697;29;20040;-72
2021/05/27 00:37:59;;;;;;;5.18;2.13;;;;;;;;;;4875571;29;20025;-71
2021/05/27 00:40:25;;;;;;;5.65;2.15;;;;;;;;;;4875176;29;20112;-71
2021/05/27 00:42:51;;;;;;;5.65;1.90;;;;;;;;;;4874004;29;20093;-70
2021/05/27 00:45:20;;;;;;;4.70;2.10;;;;;;;;;;4874216;29;20084;-74
2021/05/27 00:47:46;;;;;;;7.97;2.10;;;;;;;;;;4878344;29;20036;-72
2021/05/27 00:50:22;;;;;;;4.40;1.88;;;;;;;;;;4878247;29;20040;-71
2021/05/27 00:52:49;;;;;;;5.03;1.77;;;;;;;;;;4878533;29;20028;-71
2021/05/27 00:55:15;;;;;;;5.22;1.73;;;;;;;;;;4878467;29;20052;-66
2021/05/27 00:57:41;;;;;;;3.65;1.98;;;;;;;;;;4878490;29;20025;-68
2021/05/27 01:00:09;;;;;;;3.53;1.90;;;;;;;;;;4878015;29;20173;-70
2021/05/27 01:02:35;;;;;;;4.50;1.80;;;;;;;;;;4878293;29;20374;-72
2021/05/27 01:05:02;;;;;;;3.30;1.55;;;;;;;;;;4877873;29;20089;-72
2021/05/27 01:07:28;;;;;;;7.95;1.55;;;;;;;;;;4877852;29;20029;-72
2021/05/27 01:09:54;;;;;;;4.93;2.08;;;;;;;;;;4877843;29;20045;-70
2021/05/27 01:12:20;;;;;;;5.55;1.60;;;;;;;;;;4877884;29;20059;-71
2021/05/27 01:17:31;;;;;;;4.68;1.60;;;;;;;;;;4878049;29;20476;-72
2021/05/27 01:19:57;;;;;;;4.43;1.83;;;;;;;;;;4877866;29;20041;-71
2021/05/27 01:22:23;;;;;;;4.72;1.90;;;;;;;;;;4878007;29;20048;-72
2021/05/27 01:24:50;;;;;;;4.28;1.77;;;;;;;;;;4877679;29;20607;-71
2021/05/27 01:27:16;;;;;;;4.07;1.90;;;;;;;;;;4877773;29;20062;-74
2021/05/27 01:29:43;;;;;;;4.25;1.55;;;;;;;;;;4877519;29;20144;-72
2021/05/27 01:32:09;;;;;;;5.40;2.10;;;;;;;;;;4877750;29;20043;-70
2021/05/27 01:34:35;;;;;;;6.30;1.90;;;;;;;;;;4877478;29;20032;-72
2021/05/27 01:37:01;;;;;;;4.07;1.80;;;;;;;;;;4877610;29;20100;-72
2021/05/27 01:39:28;;;;;;;3.65;1.80;;;;;;;;;;4877977;29;20040;-71
2021/05/27 01:41:54;;;;;;;7.40;1.80;;;;;;;;;;4877122;29;20048;-71
2021/05/27 01:44:20;;;;;;;4.57;1.70;;;;;;;;;;4873973;29;20029;-73
2021/05/27 01:46:46;;;;;;;4.93;2.10;;;;;;;;;;4859363;29;20033;-72
2021/05/27 01:49:12;;;;;;;3.65;1.80;;;;;;;;;;4877520;29;20039;-72
2021/05/27 01:51:38;;;;;;;3.63;1.65;;;;;;;;;;4860719;29;20033;-72
2021/05/27 01:54:04;;;;;;;2.20;1.60;;;;;;;;;;4877393;29;20060;-72
2021/05/27 01:56:30;;;;;;;4.53;2.00;;;;;;;;;;4877349;29;20029;-69
2021/05/27 01:59:06;;;;;;;5.13;1.90;;;;;;;;;;4877042;29;20136;-72
2021/05/27 02:01:32;;;;;;;3.25;1.67;;;;;;;;;;4877062;29;20033;-73
2021/05/27 02:03:58;;;;;;;2.75;1.40;;;;;;;;;;4877522;29;20053;-71
2021/05/27 02:06:24;;;;;;;6.35;1.58;;;;;;;;;;4877194;29;20532;-73
2021/05/27 02:11:35;;;;;;;4.32;1.75;;;;;;;;;;4877204;29;20041;-72
2021/05/27 02:14:02;;;;;;;3.28;1.30;;;;;;;;;;4877025;29;20028;-73
2021/05/27 02:16:28;;;;;;;3.75;1.25;;;;;;;;;;4877105;29;20033;-72
2021/05/27 02:18:54;;;;;;;2.00;1.17;;;;;;;;;;4877113;29;20104;-72
2021/05/27 02:21:20;;;;;;;4.57;1.00;;;;;;;;;;4876830;29;20072;-71
2021/05/27 02:23:46;;;;;;;1.92;1.00;;;;;;;;;;4860283;29;20037;-69
2021/05/27 02:26:12;;;;;;;5.05;1.65;;;;;;;;;;4876970;29;20040;-69
2021/05/27 02:28:38;;;;;;;4.65;1.52;;;;;;;;;;4877156;29;20104;-66
2021/05/27 02:31:04;;;;;;;4.05;1.55;;;;;;;;;;4876824;29;20033;-66
2021/05/27 02:33:31;;;;;;;5.90;1.63;;;;;;;;;;4877307;29;20028;-72
2021/05/27 02:35:57;;;;;;;5.10;1.70;;;;;;;;;;4877373;29;20063;-71
2021/05/27 02:38:23;;;;;;;4.70;1.30;;;;;;;;;;4877061;29;20036;-72
2021/05/27 02:40:49;;;;;;;3.83;1.52;;;;;;;;;;4876772;29;20047;-72
2021/05/27 02:43:15;;;;;;;4.03;1.55;;;;;;;;;;4877033;29;20029;-72
2021/05/27 02:45:41;;;;;;;3.90;1.38;;;;;;;;;;4877091;29;20104;-73
2021/05/27 02:48:08;;;;;;;4.40;1.38;;;;;;;;;;4860352;29;20049;-71
2021/05/27 02:50:34;;;;;;;3.58;1.30;;;;;;;;;;4876701;29;20051;-72
2021/05/27 02:53:00;;;;;;;4.38;1.23;;;;;;;;;;4876588;29;20096;-72
2021/05/27 02:55:26;;;;;;;2.83;1.20;;;;;;;;;;4878785;29;20033;-73
2021/05/27 02:57:52;;;;;;;3.40;1.25;;;;;;;;;;4880440;29;20444;-73
2021/05/27 03:00:18;;;;;;;6.75;1.30;;;;;;;;;;4880172;29;20064;-72
2021/05/27 03:02:44;;;;;;;4.68;1.55;;;;;;;;;;4880637;29;20060;-73
2021/05/27 03:05:10;;;;;;;5.22;1.30;;;;;;;;;;4880341;29;20029;-72
2021/05/27 03:07:36;;;;;;;3.67;1.20;;;;;;;;;;4880242;29;20021;-72
2021/05/27 03:10:03;;;;;;;5.53;1.67;;;;;;;;;;4879634;29;20405;-72
2021/05/27 03:12:29;;;;;;;2.72;1.30;;;;;;;;;;4880179;29;20045;-71
2021/05/27 03:14:55;;;;;;;4.00;1.42;;;;;;;;;;4880207;29;20026;-73
2021/05/27 03:17:21;;;;;;;2.97;1.70;;;;;;;;;;4880018;29;20040;-72
2021/05/27 03:19:47;;;;;;;3.20;1.80;;;;;;;;;;4879592;29;20032;-72
2021/05/27 03:22:13;;;;;;;3.13;1.50;;;;;;;;;;4879824;29;20064;-72
2021/05/27 03:24:39;;;;;;;4.65;1.52;;;;;;;;;;4879852;29;20033;-71
2021/05/27 03:27:06;;;;;;;5.43;1.80;;;;;;;;;;4879691;29;20032;-72
2021/05/27 03:29:32;;;;;;;4.03;1.70;;;;;;;;;;4879643;29;20485;-73
2021/05/27 03:31:58;;;;;;;7.32;1.92;;;;;;;;;;4879715;29;20029;-72
2021/05/27 03:34:24;;;;;;;4.90;2.17;;;;;;;;;;4879826;29;20140;-73
2021/05/27 03:36:50;;;;;;;10.07;2.05;;;;;;;;;;4879403;29;20164;-72
2021/05/27 03:39:16;;;;;;;7.78;2.03;;;;;;;;;;4879690;29;20029;-73
2021/05/27 03:41:42;;;;;;;7.43;2.10;;;;;;;;;;4879332;29;20410;-72
2021/05/27 03:44:08;;;;;;;6.15;2.22;;;;;;;;;;4879428;29;20140;-72
2021/05/27 03:46:35;;;;;;;7.65;1.90;;;;;;;;;;4879258;29;20060;-71
2021/05/27 03:49:01;;;;;;;3.95;2.20;;;;;;;;;;4879506;29;20060;-71
2021/05/27 03:51:27;;;;;;;5.22;2.35;;;;;;;;;;4879438;29;20477;-72
2021/05/27 03:53:53;;;;;;;5.95;1.70;;;;;;;;;;4879624;29;20530;-72
2021/05/27 03:56:19;;;;;;;5.60;1.83;;;;;;;;;;4879110;29;20493;-73
2021/05/27 04:01:30;;;;;;;5.20;1.80;;;;;;;;;;4879298;29;20059;-72
2021/05/27 04:09:25;;;;;;;6.22;1.60;;;;;;;;;;4879060;29;20077;-73
2021/05/27 04:12:44;;;;;;;7.38;1.88;;;;;;;;;;4879179;29;20152;-73
2021/05/27 04:14:37;;;;;;;6.82;2.00;;;;;;;;;;4878759;29;20037;-71
2021/05/27 04:17:03;;;;;;;5.30;1.90;;;;;;;;;;4879032;29;20047;-72
2021/05/27 04:19:29;;;;;;;4.18;1.90;;;;;;;;;;4878745;29;20044;-73
2021/05/27 04:21:55;;;;;;;5.80;1.50;;;;;;;;;;4861721;29;20196;-69
2021/05/27 04:24:21;;;;;;;6.07;2.15;;;;;;;;;;4878648;29;20036;-69
2021/05/27 04:26:47;;;;;;;3.63;1.75;;;;;;;;;;4878840;29;20040;-70
2021/05/27 04:29:13;;;;;;;8.32;1.90;;;;;;;;;;4878886;29;20029;-70
2021/05/27 04:31:39;;;;;;;5.53;1.60;;;;;;;;;;4878619;29;20037;-70
2021/05/27 04:34:05;;;;;;;4.95;1.70;;;;;;;;;;4878416;29;20100;-70
2021/05/27 04:36:32;;;;;;;5.50;1.85;;;;;;;;;;4878616;29;20085;-70
2021/05/27 04:38:58;;;;;;;2.85;1.50;;;;;;;;;;4878616;29;20037;-70
2021/05/27 04:41:24;;;;;;;6.60;2.08;;;;;;;;;;4878532;29;20053;-70
2021/05/27 04:43:54;;;;;;;3.22;1.60;;;;;;;;;;4877929;29;20088;-70
2021/05/27 04:46:20;;;;;;;4.07;1.42;;;;;;;;;;4861559;29;20168;-70
2021/05/27 04:48:46;;;;;;;4.65;1.23;;;;;;;;;;4878291;29;20033;-70
2021/05/27 04:51:12;;;;;;;2.10;1.20;;;;;;;;;;4878227;29;20118;-68
2021/05/27 04:53:38;;;;;;;3.92;1.13;;;;;;;;;;4877846;29;20052;-66
2021/05/27 04:56:05;;;;;;;4.20;1.30;;;;;;;;;;4877843;29;20129;-69
2021/05/27 04:58:32;;;;;;;8.15;1.60;;;;;;;;;;4877859;29;20060;-69
2021/05/27 05:00:59;;;;;;;3.30;1.23;;;;;;;;;;4877587;29;20541;-69
2021/05/27 05:03:25;;;;;;;2.55;1.42;;;;;;;;;;4878066;29;20085;-69
2021/05/27 05:05:51;;;;;;;2.88;1.48;;;;;;;;;;4860617;29;20033;-68
2021/05/27 05:08:17;;;;;;;5.20;1.20;;;;;;;;;;4877772;29;20447;-68
2021/05/27 05:10:43;;;;;;;2.85;1.20;;;;;;;;;;4877623;29;20056;-71
2021/05/27 05:13:10;;;;;;;3.25;1.40;;;;;;;;;;4877853;29;20040;-69
2021/05/27 05:15:37;;;;;;;3.40;1.23;;;;;;;;;;4877867;29;20092;-69
2021/05/27 05:18:07;;;;;;;6.13;1.27;;;;;;;;;;4877445;29;20094;-68
2021/05/27 05:20:34;;;;;;;4.25;1.40;;;;;;;;;;4877537;29;20036;-70
2021/05/27 05:23:01;;;;;;;5.18;1.10;;;;;;;;;;4877751;29;20441;-69
2021/05/27 05:25:28;;;;;;;2.08;1.08;;;;;;;;;;4877484;29;20029;-67
2021/05/27 05:27:55;;;;;;;3.67;1.10;;;;;;;;;;4876510;29;20108;-66
2021/05/27 05:30:21;;;;;;;2.85;0.88;;;;;;;;;;4876819;29;20628;-67
2021/05/27 05:32:48;;;;;;;4.88;1.20;;;;;;;;;;4877277;29;20525;-68
2021/05/27 05:35:15;;;;;;;3.53;1.17;;;;;;;;;;4877025;29;20033;-67
2021/05/27 05:37:42;;;;;;;2.40;1.38;;;;;;;;;;4877239;29;20052;-69
2021/05/27 05:40:11;;;;;;;4.40;1.55;;;;;;;;;;4877077;29;20033;-65
2021/05/27 05:42:37;;;;;;;2.00;1.15;;;;;;;;;;4877225;29;20045;-66
2021/05/27 05:45:04;;;;;;;2.88;1.10;;;;;;;;;;4876575;29;20029;-67
2021/05/27 05:47:30;;;;;;;1.65;0.80;;;;;;;;;;4876959;29;20029;-65
2021/05/27 05:49:56;;;;;;;5.00;2.03;;;;;;;;;;4877141;29;20064;-64
2021/05/27 05:52:22;;;;;;;2.90;1.00;;;;;;;;;;4877358;29;20111;-67
2021/05/27 05:54:48;;;;;;;2.00;0.90;;;;;;;;;;4877378;29;20037;-64
2021/05/27 05:57:15;;;;;;;2.40;0.80;;;;;;;;;;4877016;29;20025;-65
2021/05/27 05:59:41;;;;;;;2.17;0.90;;;;;;;;;;4876993;29;20385;-62
2021/05/27 06:02:09;;;;;;;3.22;0.80;;;;;;;;;;4860679;29;20056;-64
2021/05/27 06:04:35;;;;;;;3.97;0.90;;;;;;;;;;4876972;29;20030;-64
2021/05/27 06:07:01;;;;;;;2.47;0.90;;;;;;;;;;4876871;29;20501;-64
2021/05/27 06:09:27;;;;;;;2.63;1.08;;;;;;;;;;4876520;29;20454;-64
2021/05/27 06:11:54;;;;;;;3.00;0.90;;;;;;;;;;4876494;29;20025;-65
2021/05/27 06:14:20;;;;;;;3.13;1.17;;;;;;;;;;4876822;29;20037;-66
2021/05/27 06:16:47;;;;;;;2.00;1.00;;;;;;;;;;4876981;29;20044;-66
2021/05/27 06:19:14;;;;;;;2.20;1.08;;;;;;;;;;4877013;29;20516;-63
2021/05/27 06:21:40;;;;;;;3.42;1.00;;;;;;;;;;4876665;29;20388;-67
2021/05/27 06:24:08;;;;;;;3.13;0.90;;;;;;;;;;4877194;29;20473;-66
2021/05/27 06:26:35;;;;;;;2.47;0.88;;;;;;;;;;4877544;29;20116;-62
2021/05/27 06:29:01;;;;;;;3.70;1.40;;;;;;;;;;4876884;29;20073;-64
2021/05/27 06:31:27;;;;;;;2.00;1.20;;;;;;;;;;4881238;29;20033;-66
2021/05/27 06:33:57;;;;;;;2.53;1.25;;;;;;;;;;4880809;29;20106;-65
2021/05/27 06:36:24;;;;;;;2.78;1.30;;;;;;;;;;4882220;29;20029;-64
2021/05/27 06:38:50;;;;;;;4.40;1.88;;;;;;;;;;4881809;29;20036;-63
2021/05/27 06:41:19;;;;;;;4.05;1.70;;;;;;;;;;4880468;29;20044;-67
2021/05/27 06:43:48;;;;;;;3.83;1.15;;;;;;;;;;4863536;29;20041;-65
2021/05/27 06:46:15;;;;;;;4.25;1.23;;;;;;;;;;4879714;29;20029;-65
2021/05/27 06:48:43;;;;;;;3.08;1.38;;;;;;;;;;4879655;29;20029;-67
2021/05/27 06:51:10;;;;;;;2.30;1.17;;;;;;;;;;4862632;29;20643;-63
2021/05/27 06:53:36;;;;;;;5.13;1.17;;;;;;;;;;4879642;29;20033;-64
2021/05/27 06:56:02;;;;;;;2.70;1.35;;;;;;;;;;4879907;29;20033;-65
2021/05/27 06:58:28;;;;;;;3.65;1.17;;;;;;;;;;4879686;29;20036;-64
2021/05/27 07:00:54;;;;;;;4.10;1.05;;;;;;;;;;4879717;29;20048;-69
2021/05/27 07:03:22;;;;;;;2.78;1.40;;;;;;;;;;4879990;29;20033;-68
2021/05/27 07:05:48;;;;;;;2.88;1.40;;;;;;;;;;4863135;29;20072;-64
2021/05/27 07:08:14;;;;;;;4.00;1.30;;;;;;;;;;4879381;29;20362;-68
2021/05/27 07:10:41;;;;;;;3.03;1.27;;;;;;;;;;4879157;29;20056;-69
2021/05/27 07:13:07;;;;;;;3.40;1.50;;;;;;;;;;4879202;29;20500;-64
2021/05/27 07:15:34;;;;;;;4.80;1.20;;;;;;;;;;4879424;29;20040;-63
2021/05/27 07:18:00;;;;;;;4.03;1.40;;;;;;;;;;4879490;29;20068;-64
2021/05/27 07:20:27;;;;;;;4.07;1.70;;;;;;;;;;4879498;29;20116;-65
2021/05/27 07:22:55;;;;;;;4.28;1.45;;;;;;;;;;4879889;29;20033;-64
2021/05/27 07:25:22;;;;;;;2.95;1.50;;;;;;;;;;4863119;29;20021;-63
2021/05/27 07:27:50;;;;;;;3.53;1.10;;;;;;;;;;4879353;29;20489;-64
2021/05/27 07:30:17;;;;;;;3.33;1.20;;;;;;;;;;4879716;29;20029;-65
2021/05/27 07:32:43;;;;;;;2.92;1.13;;;;;;;;;;4878529;29;20021;-64
2021/05/27 07:35:09;;;;;;;2.42;1.05;;;;;;;;;;4879092;29;20036;-63
2021/05/27 07:37:35;;;;;;;3.30;1.40;;;;;;;;;;4878495;29;20032;-67
2021/05/27 07:40:04;;;;;;;4.07;1.40;;;;;;;;;;4878741;29;20067;-65
2021/05/27 07:42:30;;;;;;;5.05;1.30;;;;;;;;;;4878041;29;20060;-65
2021/05/27 07:44:56;;;;;;;3.53;1.13;;;;;;;;;;4877914;29;20052;-65
2021/05/27 07:47:22;;;;;;;2.95;1.30;;;;;;;;;;4877922;29;20032;-64
2021/05/27 07:49:49;;;;;;;5.32;1.30;;;;;;;;;;4878772;29;20067;-66
2021/05/27 07:52:15;;;;;;;2.90;1.20;;;;;;;;;;4878859;29;20373;-66
2021/05/27 07:54:43;;;;;;;4.00;1.05;;;;;;;;;;4878028;29;20025;-66
2021/05/27 07:57:09;;;;;;;4.13;1.13;;;;;;;;;;4878702;29;20112;-66
2021/05/27 07:59:36;;;;;;;4.82;1.00;;;;;;;;;;4878727;29;20025;-66
2021/05/27 08:02:02;;;;;;;5.95;0.90;;;;;;;;;;4861503;29;20036;-66
2021/05/27 08:04:28;;;;;;;3.65;1.05;;;;;;;;;;4878639;29;20104;-66
2021/05/27 08:06:55;;;;;;;3.00;1.00;;;;;;;;;;4878491;29;20104;-65
2021/05/27 08:09:21;;;;;;;4.53;1.15;;;;;;;;;;4877243;29;20049;-65
2021/05/27 08:11:47;;;;;;;3.13;1.15;;;;;;;;;;4878392;29;20031;-65
2021/05/27 08:14:13;;;;;;;2.63;1.02;;;;;;;;;;4878257;29;20061;-65
2021/05/27 08:16:40;;;;;;;3.97;1.00;;;;;;;;;;4878388;29;20472;-65
2021/05/27 08:19:06;;;;;;;3.28;1.10;;;;;;;;;;4861177;29;20021;-64
2021/05/27 08:21:34;;;;;;;6.97;1.00;;;;;;;;;;4879517;29;20077;-65
2021/05/27 08:24:03;;;;;;;1.80;0.90;;;;;;;;;;4862490;29;20043;-64
2021/05/27 08:26:30;;;;;;;2.75;0.93;;;;;;;;;;4862711;29;20043;-66
2021/05/27 08:28:57;;;;;;;3.30;0.88;;;;;;;;;;4878679;29;20025;-68
2021/05/27 08:31:23;;;;;;;9.43;1.50;;;;;;;;;;4878602;29;20829;-65
2021/05/27 08:33:49;;;;;;;4.55;1.30;;;;;;;;;;4877858;29;20044;-67
2021/05/27 08:36:16;;;;;;;3.30;1.20;;;;;;;;;;4878441;29;20028;-68
2021/05/27 08:38:43;;;;;;;4.20;1.10;;;;;;;;;;4878102;29;20943;-66
2021/05/27 08:41:09;;;;;;;3.90;1.00;;;;;;;;;;4874750;29;20040;-68
2021/05/27 08:43:35;;;;;;;4.43;1.20;;;;;;;;;;4876536;29;20393;-66
2021/05/27 08:46:03;;;;;;;5.28;0.85;;;;;;;;;;4876345;29;20021;-67
2021/05/27 08:48:29;;;;;;;2.80;1.00;;;;;;;;;;4878259;29;20528;-66
2021/05/27 08:50:55;;;;;;;4.75;1.83;;;;;;;;;;4861517;29;20021;-65
2021/05/27 08:53:21;;;;;;;2.70;1.17;;;;;;;;;;4877334;29;20428;-66
2021/05/27 08:55:48;;;;;;;5.10;1.40;;;;;;;;;;4878058;29;20067;-66
2021/05/27 08:58:14;;;;;;;2.45;1.20;;;;;;;;;;4877804;29;20021;-67
2021/05/27 09:00:41;;;;;;;3.13;1.20;;;;;;;;;;4878571;29;20145;-67
2021/05/27 09:03:09;;;;;;;4.70;1.00;;;;;;;;;;4876887;29;20036;-67
2021/05/27 09:05:36;;;;;;;2.95;1.10;;;;;;;;;;4877661;29;20128;-65
2021/05/27 09:08:09;;;;;;;3.13;1.10;;;;;;;;;;4876817;29;20029;-66
2021/05/27 09:10:40;;;;;;;3.00;1.10;;;;;;;;;;4873132;29;20049;-67
2021/05/27 09:13:19;;;;;;;2.72;0.85;;;;;;;;;;4872805;29;20145;-66
2021/05/27 09:15:46;;;;;;;3.28;1.00;;;;;;;;;;4876383;29;20109;-64
2021/05/27 09:18:12;;;;;;;3.63;1.00;;;;;;;;;;4876775;29;20037;-64
2021/05/27 09:20:38;;;;;;;3.50;1.17;;;;;;;;;;4877512;29;20042;-64
2021/05/27 09:23:12;;;;;;;3.83;1.05;;;;;;;;;;4877911;29;20085;-67
2021/05/27 09:25:39;;;;;;;4.95;1.13;;;;;;;;;;4871000;29;20547;-64
2021/05/27 09:28:06;;;;;;;3.97;1.30;;;;;;;;;;4876803;29;20037;-66
2021/05/27 09:30:41;;;;;;;3.72;1.00;;;;;;;;;;4877157;29;20618;-65
2021/05/27 09:33:07;;;;;;;4.07;1.30;;;;;;;;;;4876529;29;20127;-65
2021/05/27 09:35:34;;;;;;;3.03;1.17;;;;;;;;;;4876864;29;20033;-63
2021/05/27 09:38:00;;;;;;;3.15;1.33;;;;;;;;;;4875986;29;20029;-65
2021/05/27 09:40:36;;;;;;;4.00;1.10;;;;;;;;;;4876439;29;20476;-64
2021/05/27 09:43:04;;;;;;;5.05;1.05;;;;;;;;;;4877165;29;20536;-66
2021/05/27 09:45:31;;;;;;;4.40;1.25;;;;;;;;;;4875698;29;20045;-64
2021/05/27 09:47:58;;;;;;;3.28;1.13;;;;;;;;;;4858004;29;20061;-65
2021/05/27 09:50:31;;;;;;;6.10;1.30;;;;;;;;;;4858553;29;20057;-63
2021/05/27 09:52:58;;;;;;;5.07;1.27;;;;;;;;;;4874966;29;20444;-64
2021/05/27 09:55:24;;;;;;;2.10;1.30;;;;;;;;;;4881346;29;20119;-65
2021/05/27 09:57:50;;;;;;;5.20;1.45;;;;;;;;;;4877008;29;20501;-67
2021/05/27 10:00:24;;;;;;;1.95;1.02;;;;;;;;;;4875885;29;20389;-66
2021/05/27 10:02:51;;;;;;;4.30;0.98;;;;;;;;;;4878224;29;20076;-65
2021/05/27 10:05:17;;;;;;;3.88;1.20;;;;;;;;;;4876021;29;20029;-66
2021/05/27 10:07:45;;;;;;;6.05;1.20;;;;;;;;;;4876765;29;20025;-66
2021/05/27 10:10:12;;;;;;;4.82;1.13;;;;;;;;;;4876190;29;20485;-67
2021/05/27 10:12:42;;;;;;;1.80;1.00;;;;;;;;;;4876941;29;20033;-67
2021/05/27 10:15:09;;;;;;;3.45;1.85;;;;;;;;;;4875911;29;20033;-66
2021/05/27 10:17:39;;;;;;;4.10;1.30;;;;;;;;;;4876464;29;20465;-64
2021/05/27 10:20:12;;;;;;;3.33;1.30;;;;;;;;;;4876000;29;20037;-66
2021/05/27 10:22:38;;;;;;;4.88;1.30;;;;;;;;;;4876720;29;20040;-65
2021/05/27 10:25:09;;;;;;;2.80;1.38;;;;;;;;;;4860904;29;20084;-66
2021/05/27 10:27:36;;;;;;;2.22;1.10;;;;;;;;;;4878896;29;20648;-65
2021/05/27 10:30:04;;;;;;;1.90;1.00;;;;;;;;;;4876121;29;20112;-66
2021/05/27 10:32:30;;;;;;;2.67;0.90;;;;;;;;;;4876528;29;20515;-67
2021/05/27 10:34:56;;;;;;;2.58;1.00;;;;;;;;;;4876228;29;20028;-65
2021/05/27 10:37:43;;;;;;;3.50;1.38;;;;;;;;;;4876410;29;20029;-68
2021/05/27 10:40:12;;;;;;;2.65;1.15;;;;;;;;;;4876019;29;20033;-65
2021/05/27 10:42:57;;;;;;;2.88;0.90;;;;;;;;;;4876491;29;20072;-67
2021/05/27 10:45:23;;;;;;;2.55;1.02;;;;;;;;;;4876165;29;20029;-68
2021/05/27 10:48:08;;;;;;;5.30;1.00;;;;;;;;;;4876130;29;20116;-67
2021/05/27 10:50:55;;;;;;;4.97;1.17;;;;;;;;;;4872062;29;20133;-68
2021/05/27 10:53:34;;;;;;;2.97;1.30;;;;;;;;;;4876248;29;20117;-65
2021/05/27 10:56:01;;;;;;;4.10;1.08;;;;;;;;;;4876691;29;20073;-67
2021/05/27 10:58:46;;;;;;;1.77;1.02;;;;;;;;;;4876250;29;20037;-66
2021/05/27 11:01:16;;;;;;;1.92;1.00;;;;;;;;;;4860619;29;20049;-64
2021/05/27 11:03:55;;;;;;;3.55;1.40;;;;;;;;;;4876023;29;20021;-65
2021/05/27 11:06:28;;;;;;;2.05;1.10;;;;;;;;;;4876851;29;20088;-66
2021/05/27 11:11:41;;;;;;;4.18;1.30;;;;;;;;;;4876269;29;20071;-66
2021/05/27 11:14:28;;;;;;;4.10;1.27;;;;;;;;;;4876492;29;20473;-64
2021/05/27 11:17:39;;;;;;;1.35;0.95;;;;;;;;;;4863446;29;20029;-65
2021/05/27 11:20:12;;;;;;;2.97;1.30;;;;;;;;;;4876904;29;20043;-67
2021/05/27 11:22:42;;;;;;;3.03;1.13;;;;;;;;;;4865157;29;20048;-66
2021/05/27 11:25:08;;;;;;;2.40;1.10;;;;;;;;;;4879062;29;20021;-66
2021/05/27 11:27:37;;;;;;;4.13;1.10;;;;;;;;;;4879682;29;20108;-65
2021/05/27 11:30:39;;;;;;;2.35;1.05;;;;;;;;;;4879222;29;20025;-63
2021/05/27 11:33:06;;;;;;;3.33;1.30;;;;;;;;;;4772151;30;20039;-64
2021/05/27 11:35:39;;;;;;;2.30;1.20;;;;;;;;;;4786801;30;20043;-65
2021/05/27 11:38:10;;;;;;;2.40;1.23;;;;;;;;;;4785402;29;20210;-66
2021/05/27 11:40:37;;;;;;;4.63;1.35;;;;;;;;;;4784907;30;20131;-63
2021/05/27 11:43:04;;;;;;;2.55;1.10;;;;;;;;;;4784888;30;20047;-65
2021/05/27 11:45:39;;;;;;;3.28;0.98;;;;;;;;;;4770086;30;20513;-62
2021/05/27 11:48:26;;;;;;;4.72;1.13;;;;;;;;;;4785637;30;20039;-63
2021/05/27 11:51:12;;;;;;;1.77;1.00;;;;;;;;;;4785373;30;20050;-64
2021/05/27 11:53:45;;;;;;;2.90;1.35;;;;;;;;;;4785004;30;20074;-65
2021/05/27 11:56:12;;;;;;;6.25;1.38;;;;;;;;;;4784679;30;20069;-64
2021/05/27 11:58:39;;;;;;;2.88;1.40;;;;;;;;;;4785143;30;20143;-64
2021/05/27 12:01:19;;;;;;;4.35;1.45;;;;;;;;;;4784954;30;20040;-64
2021/05/27 12:04:00;;;;;;;5.43;1.40;;;;;;;;;;4784532;30;20118;-66
2021/05/27 12:06:26;;;;;;;44.05;20.38;;;;;;;;;;4783790;30;20043;-69
2021/05/27 12:08:52;;;;;;;6.53;1.70;;;;;;;;;;4811953;29;20061;-71
2021/05/27 12:11:31;;;;;;;4.82;1.92;;;;;;;;;;4878343;29;20097;-66
2021/05/27 12:14:03;;;;;;;4.53;1.50;;;;;;;;;;4878265;29;20040;-67
2021/05/27 12:16:38;;;;;;;3.67;1.50;;;;;;;;;;4877913;29;20481;-67
2021/05/27 12:19:05;;;;;;;3.88;1.60;;;;;;;;;;4877517;29;20025;-66
2021/05/27 12:21:32;;;;;;;3.55;1.50;;;;;;;;;;4877760;29;20041;-65
2021/05/27 12:23:58;;;;;;;3.17;1.35;;;;;;;;;;5001572;23;20407;-67
2021/05/27 12:26:24;;;;;;;6.50;2.58;;;;;;;;;;4882108;29;20025;-66
2021/05/27 12:28:53;;;;;;;4.50;1.70;;;;;;;;;;4881082;29;20029;-68
2021/05/27 12:31:19;;;;;;;4.47;1.30;;;;;;;;;;4880551;29;20040;-67
2021/05/27 12:33:45;;;;;;;5.07;1.58;;;;;;;;;;4894567;29;20024;-67
2021/05/27 12:36:12;;;;;;;3.33;1.27;;;;;;;;;;4878124;29;20033;-68
2021/05/27 12:38:48;;;;;;;3.38;1.30;;;;;;;;;;4861288;29;20366;-67
2021/05/27 12:41:14;;;;;;;3.45;1.30;;;;;;;;;;4877826;29;20097;-66
2021/05/27 12:43:46;;;;;;;3.60;1.55;;;;;;;;;;4892496;29;20043;-68
2021/05/27 12:46:14;;;;;;;3.33;1.50;;;;;;;;;;4890444;29;20535;-66
2021/05/27 12:48:49;;;;;;;4.65;1.30;;;;;;;;;;4878048;29;20025;-66
2021/05/27 12:51:15;;;;;;;9.77;1.42;;;;;;;;;;4877807;29;20029;-64
2021/05/27 12:53:51;;;;;;;5.43;1.38;;;;;;;;;;4878348;29;20037;-66
2021/05/27 12:56:22;;;;;;;3.95;1.48;;;;;;;;;;4865776;29;20037;-67
2021/05/27 12:58:48;;;;;;;4.68;1.40;;;;;;;;;;4887829;29;20028;-65
2021/05/27 13:01:15;;;;;;;6.05;1.50;;;;;;;;;;4882617;29;20120;-66
2021/05/27 13:03:49;;;;;;;3.22;1.20;;;;;;;;;;4889055;29;20070;-66
2021/05/27 13:06:17;;;;;;;4.82;1.50;;;;;;;;;;4888018;29;20043;-68
2021/05/27 13:08:44;;;;;;;3.10;1.40;;;;;;;;;;4884293;29;20021;-65
2021/05/27 13:11:20;;;;;;;4.40;1.90;;;;;;;;;;4887464;29;20075;-66
2021/05/27 13:13:47;;;;;;;3.63;1.63;;;;;;;;;;4884020;29;20571;-65
2021/05/27 13:16:31;;;;;;;6.25;2.70;;;;;;;;;;4887487;29;20032;-63
2021/05/27 13:18:57;;;;;;;4.47;2.20;;;;;;;;;;4879774;29;20029;-66
2021/05/27 13:21:24;;;;;;;12.40;2.38;;;;;;;;;;4886005;29;20049;-65
2021/05/27 13:23:50;;;;;;;5.57;1.55;;;;;;;;;;4884691;29;20041;-68
2021/05/27 13:26:20;;;;;;;3.63;1.33;;;;;;;;;;4876599;29;20498;-67
2021/05/27 13:28:59;;;;;;;5.30;1.38;;;;;;;;;;4876929;29;20060;-65
2021/05/27 13:31:35;;;;;;;3.20;1.40;;;;;;;;;;4874701;29;20044;-64
2021/05/27 13:34:02;;;;;;;3.95;1.42;;;;;;;;;;4876654;29;20497;-65
2021/05/27 13:36:28;;;;;;;2.90;1.70;;;;;;;;;;4877293;29;20506;-65
2021/05/27 13:38:54;;;;;;;7.20;1.98;;;;;;;;;;4876906;29;20040;-65
2021/05/27 13:41:20;;;;;;;8.25;1.70;;;;;;;;;;4876547;29;20121;-65
2021/05/27 13:43:46;;;;;;;4.75;1.75;;;;;;;;;;4876876;29;20501;-66
2021/05/27 13:46:12;;;;;;;4.10;1.88;;;;;;;;;;4876784;29;20041;-66
2021/05/27 13:48:38;;;;;;;6.25;1.58;;;;;;;;;;4877096;29;20092;-65
2021/05/27 13:51:07;;;;;;;3.15;1.65;;;;;;;;;;4876924;29;20033;-66
2021/05/27 13:53:33;;;;;;;4.45;1.60;;;;;;;;;;4876717;29;20041;-65
2021/05/27 13:56:01;;;;;;;5.68;1.42;;;;;;;;;;4873939;29;20065;-67
2021/05/27 13:58:28;;;;;;;4.60;1.40;;;;;;;;;;4865647;29;20029;-65
2021/05/27 14:00:54;;;;;;;3.38;1.23;;;;;;;;;;4866718;29;20120;-65
2021/05/27 14:03:21;;;;;;;5.75;1.30;;;;;;;;;;4867314;29;20062;-63
2021/05/27 14:05:47;;;;;;;7.22;2.17;;;;;;;;;;4865364;29;20033;-66
2021/05/27 14:08:14;;;;;;;5.22;2.50;;;;;;;;;;4867982;29;20040;-65
2021/05/27 14:10:40;;;;;;;5.07;2.40;;;;;;;;;;4868351;29;20029;-66
2021/05/27 14:13:08;;;;;;;2.95;1.30;;;;;;;;;;4866344;29;20026;-66
2021/05/27 14:15:34;;;;;;;2.05;1.20;;;;;;;;;;4867144;29;20493;-65
2021/05/27 14:18:00;;;;;;;3.75;1.45;;;;;;;;;;4867413;29;20036;-64
2021/05/27 14:20:27;;;;;;;6.13;1.60;;;;;;;;;;4866077;29;20497;-65
2021/05/27 14:22:53;;;;;;;3.28;1.50;;;;;;;;;;4875803;29;20507;-63
2021/05/27 14:25:19;;;;;;;7.22;2.95;;;;;;;;;;4878942;29;20073;-63
2021/05/27 14:27:45;;;;;;;6.40;1.50;;;;;;;;;;4894047;29;20445;-62
2021/05/27 14:30:12;;;;;;;4.93;1.38;;;;;;;;;;4893672;29;20052;-63
2021/05/27 14:32:39;;;;;;;3.35;1.67;;;;;;;;;;4888187;29;20157;-65
2021/05/27 14:35:05;;;;;;;4.63;1.75;;;;;;;;;;4883373;29;20032;-63
2021/05/27 14:37:31;;;;;;;4.05;1.05;;;;;;;;;;4884566;29;20831;-66
2021/05/27 14:39:57;;;;;;;3.30;1.58;;;;;;;;;;4884542;29;20025;-66
2021/05/27 14:42:23;;;;;;;6.50;1.30;;;;;;;;;;4883180;29;20053;-63
2021/05/27 14:44:49;;;;;;;5.10;1.17;;;;;;;;;;4893290;29;20016;-66
2021/05/27 14:47:15;;;;;;;2.97;1.35;;;;;;;;;;4892124;29;20040;-67
2021/05/27 14:49:42;;;;;;;4.25;1.30;;;;;;;;;;4885056;29;20025;-64
2021/05/27 14:52:08;;;;;;;3.45;1.45;;;;;;;;;;4887250;29;20043;-66
2021/05/27 14:54:34;;;;;;;3.45;1.48;;;;;;;;;;4892014;29;20422;-65
2021/05/27 14:57:00;;;;;;;3.67;1.10;;;;;;;;;;4888067;29;20033;-62
2021/05/27 14:59:26;;;;;;;3.28;1.17;;;;;;;;;;4890370;29;20108;-64
2021/05/27 15:01:52;;;;;;;3.28;1.40;;;;;;;;;;4889463;29;20028;-62
2021/05/27 15:04:22;;;;;;;2.28;1.00;;;;;;;;;;4888936;29;20044;-64